createdAt,value
2019-01-04T00:01:19.286Z,2.43
2019-01-04T00:03:47.679Z,2.60
2019-01-04T00:06:16.176Z,2.70
2019-01-04T00:08:44.562Z,2.30
2019-01-04T00:11:13.088Z,3.33
2019-01-04T00:13:41.554Z,2.83
2019-01-04T00:16:09.943Z,2.40
2019-01-04T00:18:38.421Z,2.67
2019-01-04T00:21:06.961Z,2.63
2019-01-04T00:23:36.002Z,2.60
2019-01-04T00:26:04.483Z,2.20
2019-01-04T00:28:32.957Z,2.87
2019-01-04T00:31:01.408Z,3.00
2019-01-04T00:33:29.871Z,2.60
2019-01-04T00:35:58.377Z,3.20
2019-01-04T00:38:26.810Z,2.73
2019-01-04T00:40:55.253Z,2.67
2019-01-04T00:43:24.260Z,2.70
2019-01-04T00:45:52.730Z,2.63
2019-01-04T00:48:21.216Z,2.60
2019-01-04T00:50:49.644Z,2.50
2019-01-04T00:53:18.010Z,2.70
2019-01-04T00:56:08.845Z,2.50
2019-01-04T00:58:55.519Z,2.50
2019-01-04T01:01:46.059Z,2.23
2019-01-04T01:04:36.051Z,2.60
2019-01-04T01:07:23.763Z,2.80
2019-01-04T01:10:23.510Z,2.47
2019-01-04T01:13:06.217Z,2.00
2019-01-04T01:16:00.044Z,2.47
2019-01-04T01:18:41.963Z,2.00
2019-01-04T01:21:44.978Z,2.07
2019-01-04T01:24:31.672Z,2.27
2019-01-04T01:27:18.138Z,2.10
2019-01-04T01:30:00.324Z,2.30
2019-01-04T01:32:38.779Z,2.07
2019-01-04T01:35:32.441Z,2.10
2019-01-04T01:38:19.014Z,1.50
2019-01-04T01:40:57.753Z,2.40
2019-01-04T01:43:34.771Z,1.70
2019-01-04T01:46:21.336Z,1.90
2019-01-04T01:48:57.417Z,1.87
2019-01-04T01:51:31.096Z,1.80
2019-01-04T01:53:59.555Z,2.10
2019-01-04T01:56:30.139Z,1.67
2019-01-04T01:58:58.879Z,2.37
2019-01-04T02:01:27.257Z,2.03
2019-01-04T02:03:55.620Z,1.33
2019-01-04T02:06:24.091Z,1.80
2019-01-04T02:08:52.460Z,2.00
2019-01-04T02:11:20.860Z,2.03
2019-01-04T02:13:49.212Z,1.83
2019-01-04T02:16:17.688Z,1.77
2019-01-04T02:18:46.064Z,1.90
2019-01-04T02:21:16.578Z,1.83
2019-01-04T02:23:45.025Z,1.97
2019-01-04T02:26:13.491Z,1.40
2019-01-04T02:28:41.882Z,1.80
2019-01-04T02:31:10.267Z,2.10
2019-01-04T02:33:38.634Z,2.00
2019-01-04T02:36:07.019Z,2.53
2019-01-04T02:38:35.428Z,1.90
2019-01-04T02:41:03.880Z,1.70
2019-01-04T02:43:32.260Z,1.80
2019-01-04T02:46:01.299Z,1.73
2019-01-04T02:48:29.756Z,1.80
2019-01-04T02:50:58.120Z,1.73
2019-01-04T02:53:26.495Z,1.50
2019-01-04T02:55:54.872Z,1.87
2019-01-04T02:58:23.266Z,1.80
2019-01-04T03:00:51.660Z,1.70
2019-01-04T03:03:20.045Z,1.93
2019-01-04T03:05:48.424Z,1.70
2019-01-04T03:08:16.980Z,2.33
2019-01-04T03:10:45.521Z,1.83
2019-01-04T03:13:13.904Z,1.67
2019-01-04T03:15:42.302Z,1.50
2019-01-04T03:18:10.708Z,1.27
2019-01-04T03:20:39.272Z,1.93
2019-01-04T03:23:07.641Z,1.90
2019-01-04T03:25:36.048Z,1.70
2019-01-04T03:28:04.433Z,1.77
2019-01-04T03:30:32.793Z,1.90
2019-01-04T03:33:01.304Z,1.53
2019-01-04T03:35:29.744Z,1.60
2019-01-04T03:37:58.155Z,1.30
2019-01-04T03:40:26.529Z,1.40
2019-01-04T03:42:54.921Z,1.47
2019-01-04T03:45:23.278Z,1.60
2019-01-04T03:47:51.654Z,1.43
2019-01-04T03:50:21.774Z,1.60
2019-01-04T03:52:50.151Z,1.87
2019-01-04T03:55:18.528Z,1.40
2019-01-04T03:57:46.898Z,1.97
2019-01-04T04:00:15.276Z,1.43
2019-01-04T04:02:43.652Z,1.23
2019-01-04T04:05:12.028Z,1.20
2019-01-04T04:07:40.442Z,1.60
2019-01-04T04:10:08.829Z,1.27
2019-01-04T04:12:37.206Z,1.23
2019-01-04T04:15:05.658Z,1.50
2019-01-04T04:17:37.224Z,1.43
2019-01-04T04:20:05.985Z,1.37
2019-01-04T04:22:34.372Z,1.40
2019-01-04T04:25:02.754Z,1.80
2019-01-04T04:27:31.154Z,1.20
2019-01-04T04:29:59.552Z,1.40
2019-01-04T04:32:27.943Z,1.13
2019-01-04T04:34:56.751Z,1.43
2019-01-04T04:37:25.140Z,2.00
2019-01-04T04:39:53.504Z,1.50
2019-01-04T04:42:21.916Z,1.30
2019-01-04T04:44:50.301Z,1.37
2019-01-04T04:47:18.675Z,1.47
2019-01-04T04:49:47.442Z,1.23
2019-01-04T04:52:15.817Z,1.20
2019-01-04T04:54:44.190Z,1.27
2019-01-04T04:57:12.601Z,1.10
2019-01-04T04:59:41.056Z,1.50
2019-01-04T05:02:09.427Z,1.73
2019-01-04T05:04:37.828Z,1.57
2019-01-04T05:07:06.230Z,1.30
2019-01-04T05:09:34.610Z,1.30
2019-01-04T05:12:03.017Z,1.77
2019-01-04T05:14:31.393Z,1.30
2019-01-04T05:16:59.769Z,1.27
2019-01-04T05:19:28.171Z,1.47
2019-01-04T05:21:56.522Z,1.20
2019-01-04T05:24:25.529Z,1.50
2019-01-04T05:26:54.265Z,1.30
2019-01-04T05:29:22.727Z,1.50
2019-01-04T05:31:51.115Z,1.70
2019-01-04T05:34:19.501Z,1.23
2019-01-04T05:36:47.903Z,1.43
2019-01-04T05:39:16.288Z,1.53
2019-01-04T05:41:44.931Z,1.70
2019-01-04T05:44:13.347Z,1.80
2019-01-04T05:46:41.809Z,1.50
2019-01-04T05:49:10.201Z,1.27
2019-01-04T05:51:41.542Z,1.97
2019-01-04T05:54:10.007Z,2.00
2019-01-04T05:56:38.692Z,1.93
2019-01-04T05:59:07.217Z,1.53
2019-01-04T06:01:35.851Z,2.00
2019-01-04T06:04:04.387Z,1.63
2019-01-04T06:06:33.161Z,1.67
2019-01-04T06:09:01.964Z,1.70
2019-01-04T06:11:30.671Z,1.77
2019-01-04T06:13:59.151Z,1.67
2019-01-04T06:16:27.783Z,1.53
2019-01-04T06:22:20.660Z,2.13
2019-01-04T06:25:12.719Z,1.90
2019-01-04T06:27:45.784Z,2.03
2019-01-04T06:30:15.632Z,1.57
2019-01-04T06:32:46.866Z,2.10
2019-01-04T06:35:15.478Z,2.17
2019-01-04T06:37:44.038Z,2.10
2019-01-04T06:40:12.991Z,2.10
2019-01-04T06:42:42.611Z,2.03
2019-01-04T06:45:11.057Z,1.77
2019-01-04T06:47:39.974Z,1.63
2019-01-04T06:50:08.747Z,2.00
2019-01-04T06:52:37.175Z,1.83
2019-01-04T06:55:44.133Z,1.80
2019-01-04T06:58:12.586Z,2.10
2019-01-04T07:00:41.085Z,1.40
2019-01-04T07:03:09.741Z,1.47
2019-01-04T07:05:38.242Z,1.40
2019-01-04T07:08:07.215Z,1.67
2019-01-04T07:10:36.025Z,1.30
2019-01-04T07:13:04.587Z,1.33
2019-01-04T07:15:41.270Z,1.60
2019-01-04T07:18:11.011Z,1.30
2019-01-04T07:20:40.918Z,1.30
2019-01-04T07:23:10.354Z,1.40
2019-01-04T07:25:39.396Z,1.43
2019-01-04T07:28:10.607Z,1.53
2019-01-04T07:30:44.005Z,1.37
2019-01-04T07:33:36.182Z,1.40
2019-01-04T07:36:06.469Z,1.30
2019-01-04T07:38:38.151Z,1.10
2019-01-04T07:41:08.479Z,1.07
2019-01-04T07:43:38.190Z,0.90
2019-01-04T07:46:08.144Z,1.10
2019-01-04T07:48:38.671Z,0.93
2019-01-04T07:51:09.739Z,0.90
2019-01-04T07:53:41.843Z,1.07
2019-01-04T07:56:11.344Z,1.30
2019-01-04T07:58:42.343Z,1.43
2019-01-04T08:01:43.309Z,1.10
2019-01-04T08:04:30.539Z,1.07
2019-01-04T08:10:56.378Z,1.07
2019-01-04T08:16:05.224Z,1.37
2019-01-04T08:18:49.254Z,0.93
2019-01-04T08:21:19.237Z,1.20
2019-01-04T08:24:03.199Z,1.43
2019-01-04T08:26:38.151Z,1.10
2019-01-04T08:29:07.406Z,1.13
2019-01-04T08:35:05.221Z,1.17
2019-01-04T08:37:46.407Z,0.90
2019-01-04T08:40:18.709Z,1.10
2019-01-04T08:46:09.286Z,1.27
2019-01-04T08:48:42.126Z,0.80
2019-01-04T08:51:32.772Z,1.07
2019-01-04T08:54:20.394Z,2.07
2019-01-04T08:56:52.936Z,1.00
2019-01-04T08:59:22.683Z,1.37
2019-01-04T09:01:56.929Z,1.10
2019-01-04T09:07:45.230Z,1.17
2019-01-04T09:10:32.537Z,1.00
2019-01-04T09:19:46.267Z,0.80
2019-01-04T09:25:15.742Z,1.50
2019-01-04T09:27:47.461Z,1.37
2019-01-04T09:33:25.977Z,1.50
2019-01-04T09:36:18.615Z,1.43
2019-01-04T09:38:51.557Z,1.20
2019-01-04T09:41:42.157Z,1.50
2019-01-04T09:44:32.140Z,1.70
2019-01-04T09:47:02.603Z,1.47
2019-01-04T09:49:35.633Z,1.40
2019-01-04T09:52:25.539Z,1.93
2019-01-04T09:57:47.730Z,1.70
2019-01-04T10:00:28.649Z,1.73
2019-01-04T10:02:57.395Z,2.03
2019-01-04T10:05:29.088Z,2.00
2019-01-04T10:07:57.747Z,2.17
2019-01-04T10:10:26.315Z,2.07
2019-01-04T10:13:04.291Z,1.73
2019-01-04T10:15:41.940Z,1.67
2019-01-04T10:18:22.486Z,1.40
2019-01-04T10:21:15.199Z,2.40
2019-01-04T10:24:07.336Z,1.90
2019-01-04T10:26:35.927Z,2.00
2019-01-04T10:29:07.010Z,1.20
2019-01-04T10:31:45.545Z,1.67
2019-01-04T10:34:14.209Z,1.70
2019-01-04T10:42:26.974Z,1.93
2019-01-04T10:45:22.889Z,2.27
2019-01-04T10:47:51.619Z,2.27
2019-01-04T10:50:35.951Z,2.50
2019-01-04T10:53:11.367Z,1.97
2019-01-04T10:56:05.073Z,2.50
2019-01-04T11:01:51.801Z,2.07
2019-01-04T11:04:20.469Z,2.43
2019-01-04T11:07:20.334Z,2.00
2019-01-04T11:12:37.322Z,1.80
2019-01-04T11:15:34.480Z,1.80
2019-01-04T11:18:11.865Z,1.80
2019-01-04T11:26:50.722Z,2.27
2019-01-04T11:29:41.619Z,1.67
2019-01-04T11:32:37.534Z,2.00
2019-01-04T11:35:33.840Z,1.30
2019-01-04T11:44:58.424Z,2.10
2019-01-04T11:47:46.400Z,1.67
2019-01-04T11:50:35.978Z,1.83
2019-01-04T11:53:10.014Z,1.30
2019-01-04T11:55:56.507Z,2.03
2019-01-04T11:58:43.042Z,1.83
2019-01-04T12:01:11.768Z,1.90
2019-01-04T12:03:40.662Z,1.83
2019-01-04T12:06:09.690Z,1.50
2019-01-04T12:08:42.119Z,1.50
2019-01-04T12:14:41.451Z,1.37
2019-01-04T12:17:18.854Z,1.27
2019-01-04T12:19:51.874Z,1.53
2019-01-04T12:22:41.324Z,1.33
2019-01-04T12:25:16.837Z,1.53
2019-01-04T12:27:46.591Z,1.53
2019-01-04T12:30:37.060Z,1.23
2019-01-04T12:33:08.046Z,1.50
2019-01-04T12:35:57.849Z,1.60
2019-01-04T12:38:38.787Z,1.63
2019-01-04T12:41:29.870Z,1.83
2019-01-04T12:43:50.394Z,1.40
2019-01-04T12:52:15.249Z,1.40
2019-01-04T12:54:44.407Z,1.73
2019-01-04T12:57:19.272Z,1.47
2019-01-04T12:59:56.932Z,1.13
2019-01-04T13:02:37.614Z,1.87
2019-01-04T13:05:12.486Z,2.00
2019-01-04T13:08:31.166Z,1.73
2019-01-04T13:11:12.217Z,2.90
2019-01-04T13:14:35.491Z,2.03
2019-01-04T13:17:29.469Z,3.00
2019-01-04T13:19:58.210Z,1.70
2019-01-04T13:22:35.904Z,2.33
2019-01-04T13:25:28.282Z,1.70
2019-01-04T13:28:05.863Z,1.90
2019-01-04T13:31:08.702Z,1.80
2019-01-04T13:34:00.582Z,2.20
2019-01-04T13:36:29.493Z,2.37
2019-01-04T13:39:28.632Z,1.70
2019-01-04T13:41:57.669Z,1.80
2019-01-04T13:44:33.172Z,2.60
2019-01-04T13:47:05.979Z,2.23
2019-01-04T13:49:38.330Z,1.70
2019-01-04T13:52:48.685Z,1.77
2019-01-04T13:55:17.962Z,2.33
2019-01-04T13:57:51.395Z,1.63
2019-01-04T14:00:36.328Z,1.93
2019-01-04T14:03:15.578Z,2.27
2019-01-04T14:05:45.050Z,2.10
2019-01-04T14:08:27.836Z,2.27
2019-01-04T14:10:57.591Z,2.07
2019-01-04T14:14:09.918Z,2.27
2019-01-04T14:16:45.683Z,2.20
2019-01-04T14:23:10.474Z,1.70
2019-01-04T14:26:02.499Z,2.00
2019-01-04T14:32:21.838Z,1.60
2019-01-04T14:34:58.431Z,1.70
2019-01-04T14:37:30.329Z,1.93
2019-01-04T14:40:17.211Z,2.07
2019-01-04T14:42:45.750Z,2.10
2019-01-04T14:45:19.349Z,1.73
2019-01-04T14:47:46.464Z,1.80
2019-01-04T14:50:45.556Z,1.90
2019-01-04T14:56:26.123Z,2.10
2019-01-04T14:58:59.893Z,2.13
2019-01-04T15:01:36.244Z,1.07
2019-01-04T15:04:07.963Z,1.57
2019-01-04T15:06:58.140Z,1.67
2019-01-04T15:09:27.896Z,1.97
2019-01-04T15:14:50.320Z,1.60
2019-01-04T15:17:28.571Z,2.23
2019-01-04T15:19:58.985Z,1.53
2019-01-04T15:22:28.782Z,1.40
2019-01-04T15:25:10.269Z,1.30
2019-01-04T15:27:40.775Z,1.00
2019-01-04T15:30:36.919Z,1.70
2019-01-04T15:33:14.736Z,1.63
2019-01-04T15:39:04.626Z,3.27
2019-01-04T15:41:33.422Z,1.70
2019-01-04T15:44:23.281Z,2.23
2019-01-04T15:47:09.806Z,1.50
2019-01-04T15:49:53.099Z,1.40
2019-01-04T15:52:48.323Z,2.00
2019-01-04T15:55:35.065Z,1.17
2019-01-04T15:58:28.207Z,1.20
2019-01-04T16:01:33.301Z,1.40
2019-01-04T16:04:02.018Z,1.23
2019-01-04T16:06:30.918Z,1.60
2019-01-04T16:08:59.760Z,1.00
2019-01-04T16:11:28.340Z,1.37
2019-01-04T16:13:56.908Z,1.37
2019-01-04T16:16:25.510Z,1.30
2019-01-04T16:18:54.681Z,1.43
2019-01-04T16:21:23.363Z,2.60
2019-01-04T16:23:52.034Z,2.20
2019-01-04T16:26:20.723Z,3.00
2019-01-04T16:28:49.411Z,1.83
2019-01-04T16:31:17.934Z,1.40
2019-01-04T16:33:46.924Z,1.50
2019-01-04T16:36:15.711Z,1.87
2019-01-04T16:38:44.285Z,1.53
2019-01-04T16:41:12.969Z,1.80
2019-01-04T16:43:41.498Z,1.90
2019-01-04T16:46:10.020Z,2.87
2019-01-04T16:48:39.778Z,1.90
2019-01-04T16:51:15.823Z,1.60
2019-01-04T16:53:44.358Z,1.60
2019-01-04T16:56:12.922Z,2.90
2019-01-04T16:58:41.656Z,2.03
2019-01-04T17:01:10.115Z,2.40
2019-01-04T17:03:38.710Z,2.40
2019-01-04T17:06:07.310Z,1.97
2019-01-04T17:08:35.753Z,2.27
2019-01-04T17:11:04.254Z,1.60
2019-01-04T17:13:32.914Z,1.73
2019-01-04T17:16:01.459Z,1.77
2019-01-04T17:18:31.548Z,1.63
2019-01-04T17:21:00.035Z,1.93
2019-01-04T17:23:28.468Z,1.60
2019-01-04T17:25:56.994Z,2.00
2019-01-04T17:28:25.435Z,2.00
2019-01-04T17:30:53.995Z,1.77
2019-01-04T17:33:22.523Z,1.83
2019-01-04T17:35:50.938Z,2.17
2019-01-04T17:38:19.428Z,2.10
2019-01-04T17:40:47.979Z,1.73
2019-01-04T17:43:16.603Z,1.63
2019-01-04T17:45:45.127Z,1.47
2019-01-04T17:48:13.831Z,2.30
2019-01-04T17:50:45.442Z,1.70
2019-01-04T17:53:13.886Z,2.23
2019-01-04T17:55:42.410Z,2.17
2019-01-04T17:58:10.883Z,1.33
2019-01-04T18:00:39.395Z,2.40
2019-01-04T18:03:07.927Z,1.50
2019-01-04T18:05:36.412Z,1.77
2019-01-04T18:08:05.115Z,1.50
2019-01-04T18:10:33.598Z,1.77
2019-01-04T18:13:02.015Z,1.63
2019-01-04T18:15:30.527Z,1.30
2019-01-04T18:17:59.041Z,2.07
2019-01-04T18:20:28.742Z,1.50
2019-01-04T18:22:57.189Z,2.10
2019-01-04T18:25:27.807Z,1.67
2019-01-04T18:27:56.862Z,1.40
2019-01-04T18:30:29.606Z,1.93
2019-01-04T18:33:01.106Z,1.40
2019-01-04T18:35:31.779Z,1.60
2019-01-04T18:38:04.364Z,1.47
2019-01-04T18:40:35.041Z,1.57
2019-01-04T18:43:12.903Z,1.10
2019-01-04T18:45:42.926Z,1.97
2019-01-04T18:48:11.395Z,1.67
2019-01-04T18:50:40.238Z,1.73
2019-01-04T18:53:17.891Z,1.40
2019-01-04T18:55:48.453Z,1.40
2019-01-04T18:58:17.747Z,1.97
2019-01-04T19:00:52.417Z,1.53
2019-01-04T19:03:21.053Z,2.10
2019-01-04T19:06:00.222Z,1.80
2019-01-04T19:08:31.317Z,2.20
2019-01-04T19:11:01.465Z,2.00
2019-01-04T19:13:35.583Z,1.00
2019-01-04T19:16:06.314Z,1.40
2019-01-04T19:18:35.002Z,1.53
2019-01-04T19:21:04.911Z,2.13
2019-01-04T19:23:39.562Z,2.73
2019-01-04T19:26:03.707Z,1.67
2019-01-04T19:28:34.255Z,1.40
2019-01-04T19:31:04.970Z,2.17
2019-01-04T19:33:33.527Z,1.40
2019-01-04T19:36:11.303Z,1.33
2019-01-04T19:38:39.880Z,1.40
2019-01-04T19:41:08.590Z,1.23
2019-01-04T19:43:44.734Z,1.20
2019-01-04T19:46:13.353Z,1.90
2019-01-04T19:48:42.082Z,2.57
2019-01-04T19:51:10.722Z,1.67
2019-01-04T19:53:39.323Z,1.23
2019-01-04T19:56:08.320Z,1.80
2019-01-04T19:58:49.124Z,0.90
2019-01-04T20:01:17.967Z,1.30
2019-01-04T20:03:55.647Z,0.93
2019-01-04T20:07:18.226Z,1.63
2019-01-04T20:10:22.819Z,1.53
2019-01-04T20:13:31.355Z,1.00
2019-01-04T20:16:24.679Z,1.37
2019-01-04T20:19:34.068Z,1.00
2019-01-04T20:22:20.436Z,1.53
2019-01-04T20:25:29.894Z,3.60
2019-01-04T20:28:16.754Z,1.57
2019-01-04T20:31:08.579Z,1.67
2019-01-04T20:34:02.432Z,1.90
2019-01-04T20:36:49.514Z,1.43
2019-01-04T20:39:42.282Z,1.07
2019-01-04T20:42:30.125Z,1.40
2019-01-04T20:45:24.164Z,1.93
2019-01-04T20:48:10.756Z,1.20
2019-01-04T20:50:57.316Z,1.60
2019-01-04T20:53:50.888Z,1.40
2019-01-04T20:56:41.461Z,1.50
2019-01-04T20:59:28.101Z,1.60
2019-01-04T21:02:14.440Z,1.50
2019-01-04T21:05:02.340Z,1.80
2019-01-04T21:07:59.199Z,1.70
2019-01-04T21:10:53.413Z,1.10
2019-01-04T21:13:53.267Z,1.40
2019-01-04T21:16:50.051Z,1.00
2019-01-04T21:19:32.538Z,1.00
2019-01-04T21:22:18.772Z,0.80
2019-01-04T21:25:05.425Z,1.00
2019-01-04T21:27:46.394Z,1.40
2019-01-04T21:30:42.257Z,0.90
2019-01-04T21:33:45.141Z,0.80
2019-01-04T21:36:34.172Z,1.33
2019-01-04T21:39:34.014Z,0.90
2019-01-04T21:42:20.418Z,0.90
2019-01-04T21:45:07.079Z,1.13
2019-01-04T21:48:10.152Z,1.20
2019-01-04T21:50:56.590Z,1.70
2019-01-04T21:53:38.808Z,0.83
2019-01-04T21:56:29.428Z,0.90
2019-01-04T21:59:29.357Z,0.83
2019-01-04T22:02:32.177Z,1.00
2019-01-04T22:05:23.410Z,1.00
2019-01-04T22:08:14.037Z,1.00
2019-01-04T22:11:00.362Z,1.73
2019-01-04T22:13:43.213Z,0.90
2019-01-04T22:16:48.997Z,1.00
2019-01-04T22:19:51.917Z,0.90
2019-01-04T22:22:33.068Z,0.80
2019-01-04T22:25:19.403Z,1.10
2019-01-04T22:28:12.485Z,0.90
2019-01-04T22:30:58.997Z,0.80
2019-01-04T22:33:45.352Z,0.60
2019-01-04T22:36:35.938Z,0.90
2019-01-04T22:39:24.824Z,1.10
2019-01-04T22:42:11.355Z,1.00
2019-01-04T22:45:05.122Z,0.97
2019-01-04T22:47:58.922Z,0.80
2019-01-04T22:51:01.584Z,0.77
2019-01-04T22:53:47.911Z,1.07
2019-01-04T22:56:50.634Z,0.90
2019-01-04T22:59:37.186Z,0.80
2019-01-04T23:02:24.125Z,0.90
2019-01-04T23:05:10.705Z,0.77
2019-01-04T23:07:57.303Z,0.90
2019-01-04T23:11:00.563Z,1.47
2019-01-04T23:13:46.205Z,1.47
2019-01-04T23:16:31.515Z,0.90
2019-01-04T23:19:18.306Z,1.17
2019-01-04T23:22:08.889Z,1.40
2019-01-04T23:25:14.929Z,1.00
2019-01-04T23:27:57.875Z,1.30
2019-01-04T23:30:48.421Z,1.53
2019-01-04T23:33:38.941Z,1.77
2019-01-04T23:36:25.303Z,2.40
2019-01-04T23:39:18.827Z,2.03
2019-01-04T23:42:05.365Z,2.33
2019-01-04T23:45:01.796Z,2.40
2019-01-04T23:48:11.647Z,1.90
2019-01-04T23:50:58.242Z,2.67
2019-01-04T23:53:54.582Z,1.93
2019-01-04T23:56:44.097Z,1.80
2019-01-04T23:59:37.994Z,2.10
